createdAt,value
2022-10-18T00:02:09.625Z,14.80
2022-10-18T00:04:42.894Z,17.80
2022-10-18T00:07:15.840Z,14.90
2022-10-18T00:09:48.564Z,12.60
2022-10-18T00:12:21.305Z,9.70
2022-10-18T00:14:54.694Z,14.00
2022-10-18T00:17:27.646Z,9.80
2022-10-18T00:20:00.769Z,14.20
2022-10-18T00:22:35.115Z,15.50
2022-10-18T00:25:10.282Z,14.20
2022-10-18T00:27:43.176Z,10.30
2022-10-18T00:30:16.162Z,13.90
2022-10-18T00:32:49.113Z,12.70
2022-10-18T00:35:22.116Z,13.60
2022-10-18T00:37:54.929Z,10.10
2022-10-18T00:40:27.674Z,11.90
2022-10-18T00:43:00.466Z,10.70
2022-10-18T00:45:33.632Z,12.50
2022-10-18T00:48:07.872Z,9.30
2022-10-18T00:50:41.632Z,12.30
2022-10-18T00:53:20.375Z,10.40
2022-10-18T00:55:53.743Z,15.40
2022-10-18T00:58:26.734Z,12.90
2022-10-18T01:00:59.636Z,12.70
2022-10-18T01:03:32.660Z,12.60
2022-10-18T01:06:05.735Z,11.30
2022-10-18T01:09:15.870Z,12.00
2022-10-18T01:12:10.591Z,12.60
2022-10-18T01:14:52.235Z,11.30
2022-10-18T01:17:32.763Z,10.50
2022-10-18T01:20:39.526Z,9.10
2022-10-18T01:23:20.465Z,12.40
2022-10-18T01:26:05.865Z,9.80
2022-10-18T01:28:55.869Z,9.10
2022-10-18T01:31:34.265Z,13.00
2022-10-18T01:34:11.053Z,9.40
2022-10-18T01:36:47.892Z,8.90
2022-10-18T01:39:25.890Z,15.60
2022-10-18T01:42:00.987Z,9.80
2022-10-18T01:44:36.342Z,10.20
2022-10-18T01:47:12.192Z,9.50
2022-10-18T01:49:45.013Z,10.20
2022-10-18T01:52:19.174Z,15.50
2022-10-18T01:54:53.254Z,9.10
2022-10-18T01:57:35.934Z,9.30
2022-10-18T02:00:14.941Z,11.60
2022-10-18T02:02:53.970Z,10.20
2022-10-18T02:05:34.232Z,11.20
2022-10-18T02:08:22.865Z,11.40
2022-10-18T02:11:02.117Z,11.80
2022-10-18T02:13:38.737Z,16.20
2022-10-18T02:16:14.758Z,13.60
2022-10-18T02:19:00.877Z,13.40
2022-10-18T02:21:34.452Z,10.70
2022-10-18T02:24:09.459Z,14.50
2022-10-18T02:26:42.547Z,10.30
2022-10-18T02:29:15.464Z,11.80
2022-10-18T02:31:51.240Z,11.00
2022-10-18T02:34:28.529Z,10.90
2022-10-18T02:37:03.212Z,13.30
2022-10-18T02:39:38.974Z,18.40
2022-10-18T02:42:15.222Z,13.60
2022-10-18T02:44:47.964Z,12.10
2022-10-18T02:47:20.831Z,17.10
2022-10-18T02:49:53.714Z,21.10
2022-10-18T02:52:26.563Z,12.60
2022-10-18T02:54:59.369Z,13.20
2022-10-18T02:57:32.680Z,12.00
2022-10-18T03:00:07.247Z,13.80
2022-10-18T03:02:40.058Z,14.90
2022-10-18T03:05:13.081Z,14.10
2022-10-18T03:07:45.825Z,13.50
2022-10-18T03:10:18.628Z,15.30
2022-10-18T03:12:51.378Z,15.30
2022-10-18T03:15:24.169Z,16.60
2022-10-18T03:17:57.240Z,13.50
2022-10-18T03:20:30.238Z,14.10
2022-10-18T03:23:03.490Z,13.60
2022-10-18T03:25:36.340Z,15.10
2022-10-18T03:28:09.701Z,17.30
2022-10-18T03:30:42.738Z,13.30
2022-10-18T03:33:15.712Z,15.60
2022-10-18T03:35:48.505Z,15.90
2022-10-18T03:38:21.271Z,17.50
2022-10-18T03:40:54.088Z,16.30
2022-10-18T03:43:26.964Z,11.70
2022-10-18T03:45:59.862Z,16.10
2022-10-18T03:48:32.699Z,17.70
2022-10-18T03:51:05.688Z,19.20
2022-10-18T03:53:38.593Z,18.90
2022-10-18T03:56:11.622Z,15.10
2022-10-18T03:58:44.551Z,15.60
2022-10-18T04:01:17.549Z,19.80
2022-10-18T04:03:50.347Z,19.10
2022-10-18T04:06:23.068Z,18.50
2022-10-18T04:08:57.578Z,14.70
2022-10-18T04:11:30.387Z,21.00
2022-10-18T04:14:03.453Z,13.00
2022-10-18T04:19:13.983Z,24.80
2022-10-18T04:21:46.783Z,24.70
2022-10-18T04:24:20.784Z,18.20
2022-10-18T04:26:53.642Z,18.60
2022-10-18T04:29:26.760Z,19.60
2022-10-18T04:31:59.535Z,23.20
2022-10-18T04:34:32.494Z,22.50
2022-10-18T04:37:05.454Z,22.50
2022-10-18T04:39:38.243Z,20.90
2022-10-18T04:42:11.020Z,22.50
2022-10-18T04:44:43.796Z,25.30
2022-10-18T04:47:16.697Z,22.00
2022-10-18T04:49:52.347Z,23.10
2022-10-18T04:52:25.182Z,28.40
2022-10-18T04:54:57.980Z,28.40
2022-10-18T04:57:31.160Z,25.40
2022-10-18T05:00:04.421Z,32.80
2022-10-18T05:02:37.228Z,22.40
2022-10-18T05:05:13.950Z,25.50
2022-10-18T05:07:47.110Z,32.90
2022-10-18T05:10:22.019Z,34.20
2022-10-18T05:12:54.854Z,26.20
2022-10-18T05:15:27.830Z,24.30
2022-10-18T05:18:00.613Z,25.80
2022-10-18T05:20:33.535Z,29.40
2022-10-18T05:23:06.314Z,36.30
2022-10-18T05:25:40.880Z,30.30
2022-10-18T05:28:38.001Z,30.10
2022-10-18T05:31:08.726Z,32.20
2022-10-18T05:33:41.963Z,25.70
2022-10-18T05:36:15.160Z,20.80
2022-10-18T05:38:48.456Z,24.70
2022-10-18T05:41:21.351Z,31.90
2022-10-18T05:43:54.270Z,24.70
2022-10-18T05:46:27.195Z,25.30
2022-10-18T05:48:59.975Z,23.10
2022-10-18T05:51:32.820Z,25.30
2022-10-18T05:54:05.677Z,33.80
2022-10-18T05:59:16.568Z,33.90
2022-10-18T06:01:49.432Z,27.60
2022-10-18T06:04:22.513Z,38.00
2022-10-18T06:06:56.289Z,38.40
2022-10-18T06:09:30.797Z,31.10
2022-10-18T06:12:03.613Z,39.30
2022-10-18T06:14:36.764Z,18.40
2022-10-18T06:17:09.549Z,30.00
2022-10-18T06:19:44.467Z,17.80
2022-10-18T06:22:17.374Z,17.10
2022-10-18T06:24:55.071Z,21.50
2022-10-18T06:27:31.952Z,20.40
2022-10-18T06:30:05.192Z,20.00
2022-10-18T06:32:38.133Z,14.00
2022-10-18T06:35:12.319Z,16.40
2022-10-18T06:37:45.249Z,21.30
2022-10-18T06:40:18.413Z,15.50
2022-10-18T06:43:00.335Z,21.30
2022-10-18T06:45:33.971Z,14.90
2022-10-18T06:48:07.414Z,24.90
2022-10-18T06:50:40.409Z,15.30
2022-10-18T06:53:13.406Z,17.10
2022-10-18T06:55:46.918Z,22.70
2022-10-18T06:58:19.736Z,15.60
2022-10-18T07:00:52.731Z,23.40
2022-10-18T07:03:26.352Z,20.20
2022-10-18T07:06:03.141Z,17.90
2022-10-18T07:08:36.275Z,20.90
2022-10-18T07:11:10.563Z,21.70
2022-10-18T07:13:43.629Z,16.30
2022-10-18T07:16:18.728Z,19.80
2022-10-18T07:18:52.985Z,18.40
2022-10-18T07:21:27.501Z,19.40
2022-10-18T07:24:01.425Z,20.60
2022-10-18T07:26:36.569Z,18.20
2022-10-18T07:29:13.381Z,19.90
2022-10-18T07:31:46.482Z,13.40
2022-10-18T07:34:19.795Z,19.00
2022-10-18T07:36:52.535Z,15.50
2022-10-18T07:39:25.420Z,18.50
2022-10-18T07:41:58.767Z,20.00
2022-10-18T07:44:31.669Z,16.40
2022-10-18T07:47:04.445Z,24.90
2022-10-18T07:49:37.315Z,23.80
2022-10-18T07:52:10.125Z,29.80
2022-10-18T07:54:42.995Z,19.70
2022-10-18T07:57:15.946Z,25.00
2022-10-18T07:59:52.406Z,16.60
2022-10-18T08:02:25.463Z,20.20
2022-10-18T08:04:58.397Z,21.20
2022-10-18T08:07:33.353Z,15.20
2022-10-18T08:10:07.104Z,22.00
2022-10-18T08:12:39.902Z,21.50
2022-10-18T08:15:14.380Z,16.90
2022-10-18T08:17:47.258Z,15.20
2022-10-18T08:20:30.519Z,19.20
2022-10-18T08:23:03.992Z,14.50
2022-10-18T08:28:14.711Z,17.50
2022-10-18T08:30:47.707Z,15.40
2022-10-18T08:33:20.523Z,16.90
2022-10-18T08:36:01.307Z,13.30
2022-10-18T08:38:36.048Z,17.20
2022-10-18T08:41:50.042Z,17.00
2022-10-18T08:44:26.555Z,14.90
2022-10-18T08:47:05.412Z,14.30
2022-10-18T08:49:46.845Z,14.60
2022-10-18T08:52:36.866Z,11.60
2022-10-18T08:55:17.284Z,11.90
2022-10-18T08:57:52.067Z,14.50
2022-10-18T09:00:30.179Z,13.10
2022-10-18T09:03:23.889Z,11.20
2022-10-18T09:06:03.347Z,11.40
2022-10-18T09:08:56.271Z,14.90
2022-10-18T09:11:48.258Z,9.70
2022-10-18T09:14:50.708Z,16.80
2022-10-18T09:17:33.741Z,11.10
2022-10-18T09:20:23.132Z,12.20
2022-10-18T09:23:13.380Z,11.00
2022-10-18T09:25:50.167Z,26.50
2022-10-18T09:28:35.603Z,10.10
2022-10-18T09:31:15.526Z,14.70
2022-10-18T09:33:55.292Z,14.30
2022-10-18T09:39:04.792Z,10.60
2022-10-18T09:41:45.959Z,10.20
2022-10-18T09:44:23.792Z,14.30
2022-10-18T09:47:01.652Z,18.50
2022-10-18T09:49:39.654Z,11.90
2022-10-18T09:52:26.845Z,13.30
2022-10-18T09:55:04.548Z,12.20
2022-10-18T09:57:41.659Z,14.50
2022-10-18T10:00:24.342Z,11.80
2022-10-18T10:02:57.808Z,13.00
2022-10-18T10:05:30.982Z,11.00
2022-10-18T10:08:04.977Z,11.30
2022-10-18T10:10:40.248Z,12.00
2022-10-18T10:13:26.372Z,11.20
2022-10-18T10:16:02.602Z,10.20
2022-10-18T10:18:37.997Z,14.10
2022-10-18T10:21:17.331Z,12.30
2022-10-18T10:23:55.168Z,15.10
2022-10-18T10:26:33.476Z,12.40
2022-10-18T10:29:43.720Z,13.70
2022-10-18T10:32:19.998Z,10.70
2022-10-18T10:34:53.385Z,13.30
2022-10-18T10:37:40.841Z,13.80
2022-10-18T10:40:25.279Z,14.90
2022-10-18T10:43:36.534Z,15.40
2022-10-18T10:46:13.227Z,17.10
2022-10-18T10:49:04.253Z,16.10
2022-10-18T10:54:21.717Z,13.20
2022-10-18T10:57:02.417Z,16.00
2022-10-18T10:59:44.757Z,14.60
2022-10-18T11:02:27.660Z,16.20
2022-10-18T11:05:24.884Z,14.60
2022-10-18T11:08:00.809Z,20.70
2022-10-18T11:10:40.087Z,14.50
2022-10-18T11:13:33.197Z,19.20
2022-10-18T11:16:15.107Z,15.10
2022-10-18T11:18:52.615Z,15.40
2022-10-18T11:21:29.249Z,11.80
2022-10-18T11:24:05.025Z,13.60
2022-10-18T11:26:53.841Z,11.80
2022-10-18T11:29:44.886Z,11.50
2022-10-18T11:32:27.378Z,15.70
2022-10-18T11:35:21.258Z,17.60
2022-10-18T11:38:13.957Z,14.30
2022-10-18T11:41:01.043Z,12.60
2022-10-18T11:44:01.047Z,18.30
2022-10-18T11:46:52.142Z,12.60
2022-10-18T11:49:54.098Z,11.40
2022-10-18T11:52:36.805Z,15.80
2022-10-18T11:55:33.434Z,15.10
2022-10-18T11:58:19.606Z,10.90
2022-10-18T12:00:58.560Z,18.40
2022-10-18T12:03:47.076Z,19.90
2022-10-18T12:06:25.186Z,13.40
2022-10-18T12:09:02.605Z,8.90
2022-10-18T12:11:45.438Z,10.40
2022-10-18T12:14:28.043Z,15.00
2022-10-18T12:17:39.917Z,17.90
2022-10-18T12:20:00.557Z,14.70
2022-10-18T12:22:39.856Z,11.90
2022-10-18T12:25:19.251Z,19.20
2022-10-18T12:28:03.650Z,15.10
2022-10-18T12:30:45.580Z,13.30
2022-10-18T12:33:28.375Z,14.60
2022-10-18T12:36:12.932Z,12.80
2022-10-18T12:38:49.410Z,17.80
2022-10-18T12:41:27.089Z,12.90
2022-10-18T12:44:05.324Z,10.30
2022-10-18T12:46:52.964Z,10.30
2022-10-18T12:49:31.504Z,16.10
2022-10-18T12:52:08.622Z,9.60
2022-10-18T12:54:42.468Z,12.10
2022-10-18T12:57:26.529Z,21.00
2022-10-18T12:59:59.487Z,12.50
2022-10-18T13:02:36.400Z,14.50
2022-10-18T13:06:01.574Z,14.00
2022-10-18T13:08:46.003Z,16.00
2022-10-18T13:11:36.992Z,15.00
2022-10-18T13:15:05.996Z,11.50
2022-10-18T13:17:57.429Z,15.30
2022-10-18T13:20:38.589Z,14.60
2022-10-18T13:23:37.119Z,10.90
2022-10-18T13:26:24.515Z,12.60
2022-10-18T13:29:07.152Z,14.30
2022-10-18T13:31:46.449Z,17.70
2022-10-18T13:34:33.191Z,17.80
2022-10-18T13:37:19.936Z,13.10
2022-10-18T13:40:14.308Z,13.70
2022-10-18T13:42:47.380Z,13.80
2022-10-18T13:45:55.541Z,15.10
2022-10-18T13:48:52.130Z,11.00
2022-10-18T13:51:47.157Z,11.70
2022-10-18T13:54:47.094Z,17.70
2022-10-18T13:57:39.213Z,13.50
2022-10-18T14:00:33.972Z,19.60
2022-10-18T14:03:55.678Z,12.20
2022-10-18T14:06:24.988Z,12.10
2022-10-18T14:09:09.746Z,10.70
2022-10-18T14:11:55.260Z,13.70
2022-10-18T14:14:36.588Z,13.70
2022-10-18T14:17:20.939Z,12.20
2022-10-18T14:19:58.557Z,18.60
2022-10-18T14:22:36.715Z,25.20
2022-10-18T14:25:30.709Z,23.60
2022-10-18T14:28:18.451Z,26.00
2022-10-18T14:31:02.228Z,19.70
2022-10-18T14:33:42.387Z,14.40
2022-10-18T14:36:24.438Z,16.40
2022-10-18T14:39:00.493Z,19.30
2022-10-18T14:41:35.261Z,10.90
2022-10-18T14:44:26.307Z,10.40
2022-10-18T14:47:05.700Z,10.10
2022-10-18T14:49:45.448Z,8.40
2022-10-18T14:52:24.066Z,10.30
2022-10-18T14:55:01.727Z,8.50
2022-10-18T14:57:38.311Z,7.20
2022-10-18T15:03:01.802Z,5.70
2022-10-18T15:05:34.652Z,5.70
2022-10-18T15:08:07.907Z,4.80
2022-10-18T15:10:40.908Z,8.80
2022-10-18T15:13:15.610Z,5.20
2022-10-18T15:15:49.210Z,4.00
2022-10-18T15:18:26.646Z,3.30
2022-10-18T15:21:25.582Z,4.60
2022-10-18T15:24:22.054Z,2.90
2022-10-18T15:26:56.404Z,5.00
2022-10-18T15:29:33.308Z,2.60
2022-10-18T15:32:20.908Z,3.30
2022-10-18T15:34:54.426Z,3.30
2022-10-18T15:37:41.427Z,2.00
2022-10-18T15:40:38.166Z,6.50
2022-10-18T15:43:39.968Z,3.90
2022-10-18T15:46:34.114Z,1.50
2022-10-18T15:49:56.743Z,3.20
2022-10-18T15:52:46.364Z,5.30
2022-10-18T15:55:49.277Z,2.10
2022-10-18T15:58:39.216Z,3.30
2022-10-18T16:01:18.365Z,2.50
2022-10-18T16:06:30.609Z,2.70
2022-10-18T16:09:03.635Z,6.00
2022-10-18T16:11:36.446Z,5.70
2022-10-18T16:14:09.321Z,4.20
2022-10-18T16:16:42.582Z,3.00
2022-10-18T16:19:18.901Z,3.70
2022-10-18T16:21:52.801Z,5.20
2022-10-18T16:24:26.115Z,5.30
2022-10-18T16:26:58.939Z,6.80
2022-10-18T16:29:33.201Z,8.90
2022-10-18T16:32:06.592Z,4.90
2022-10-18T16:34:39.591Z,7.60
2022-10-18T16:37:13.468Z,4.20
2022-10-18T16:39:46.572Z,7.00
2022-10-18T16:42:19.313Z,8.70
2022-10-18T16:44:53.836Z,7.20
2022-10-18T16:47:26.616Z,7.80
2022-10-18T16:50:04.093Z,7.40
2022-10-18T16:52:39.434Z,10.40
2022-10-18T16:55:21.118Z,10.20
2022-10-18T16:57:55.174Z,13.30
2022-10-18T17:00:28.187Z,6.60
2022-10-18T17:03:00.927Z,10.90
2022-10-18T17:05:34.073Z,9.30
2022-10-18T17:08:07.226Z,7.40
2022-10-18T17:10:40.157Z,7.90
2022-10-18T17:13:12.869Z,6.90
2022-10-18T17:15:46.730Z,7.90
2022-10-18T17:18:23.370Z,6.90
2022-10-18T17:20:56.738Z,6.30
2022-10-18T17:23:29.776Z,8.20
2022-10-18T17:26:26.247Z,8.20
2022-10-18T17:28:57.755Z,10.90
2022-10-18T17:31:31.962Z,9.50
2022-10-18T17:34:05.204Z,8.80
2022-10-18T17:36:38.341Z,8.90
2022-10-18T17:39:13.464Z,7.80
2022-10-18T17:41:46.296Z,7.80
2022-10-18T17:44:19.111Z,10.00
2022-10-18T17:46:52.264Z,8.60
2022-10-18T17:49:25.230Z,7.90
2022-10-18T17:51:58.151Z,7.10
2022-10-18T17:54:31.301Z,7.80
2022-10-18T17:57:04.389Z,11.30
2022-10-18T17:59:37.328Z,10.50
2022-10-18T18:02:10.849Z,10.80
2022-10-18T18:04:43.813Z,9.10
2022-10-18T18:07:16.573Z,10.20
2022-10-18T18:09:49.371Z,15.10
2022-10-18T18:12:22.476Z,10.40
2022-10-18T18:14:55.516Z,12.90
2022-10-18T18:17:34.400Z,11.80
2022-10-18T18:20:14.729Z,12.80
2022-10-18T18:22:47.821Z,10.00
2022-10-18T18:25:20.689Z,11.10
2022-10-18T18:27:53.561Z,10.70
2022-10-18T18:30:26.493Z,11.90
2022-10-18T18:32:59.371Z,13.60
2022-10-18T18:35:33.076Z,13.00
2022-10-18T18:38:06.002Z,13.20
2022-10-18T18:40:38.882Z,10.20
2022-10-18T18:43:22.878Z,12.50
2022-10-18T18:45:56.558Z,14.40
2022-10-18T18:48:32.714Z,11.20
2022-10-18T18:51:06.608Z,12.10
2022-10-18T18:53:40.368Z,17.20
2022-10-18T18:56:16.279Z,12.30
2022-10-18T18:58:49.809Z,14.80
2022-10-18T19:01:25.123Z,12.90
2022-10-18T19:03:59.414Z,14.30
2022-10-18T19:06:34.346Z,15.30
2022-10-18T19:09:12.971Z,14.10
2022-10-18T19:11:46.776Z,11.90
2022-10-18T19:14:20.173Z,11.80
2022-10-18T19:16:54.717Z,12.60
2022-10-18T19:19:29.352Z,10.00
2022-10-18T19:22:05.124Z,15.20
2022-10-18T19:24:38.081Z,12.70
2022-10-18T19:27:13.203Z,13.30
2022-10-18T19:29:47.512Z,15.50
2022-10-18T19:32:20.427Z,17.70
2022-10-18T19:34:53.544Z,11.50
2022-10-18T19:37:26.283Z,14.90
2022-10-18T19:39:59.634Z,14.10
2022-10-18T19:42:32.849Z,26.50
2022-10-18T19:45:06.606Z,15.00
2022-10-18T19:47:41.310Z,17.00
2022-10-18T19:50:14.542Z,17.50
2022-10-18T19:52:47.458Z,15.50
2022-10-18T19:55:20.550Z,14.50
2022-10-18T19:57:53.268Z,18.60
2022-10-18T20:00:26.125Z,14.30
2022-10-18T20:02:58.964Z,15.00
2022-10-18T20:05:31.746Z,15.60
2022-10-18T20:08:04.588Z,16.20
2022-10-18T20:10:37.596Z,14.80
2022-10-18T20:13:10.396Z,15.40
2022-10-18T20:15:43.233Z,14.50
2022-10-18T20:18:16.496Z,13.40
2022-10-18T20:20:50.189Z,14.90
2022-10-18T20:23:23.678Z,14.90
2022-10-18T20:26:05.232Z,14.50
2022-10-18T20:28:38.643Z,15.70
2022-10-18T20:31:17.076Z,16.90
2022-10-18T20:33:54.558Z,12.10
2022-10-18T20:36:28.227Z,15.70
2022-10-18T20:39:01.572Z,13.50
2022-10-18T20:41:38.147Z,15.30
2022-10-18T20:44:16.923Z,17.30
2022-10-18T20:46:49.977Z,12.70
2022-10-18T20:49:22.896Z,13.40
2022-10-18T20:51:55.699Z,10.70
2022-10-18T20:54:28.755Z,12.60
2022-10-18T20:57:01.632Z,12.60
2022-10-18T20:59:34.802Z,12.80
2022-10-18T21:02:08.064Z,13.40
2022-10-18T21:04:42.309Z,12.00
2022-10-18T21:07:15.230Z,13.70
2022-10-18T21:09:48.053Z,15.00
2022-10-18T21:12:20.874Z,13.80
2022-10-18T21:14:54.189Z,17.30
2022-10-18T21:17:26.972Z,14.00
2022-10-18T21:20:01.204Z,14.40
2022-10-18T21:22:34.397Z,16.30
2022-10-18T21:25:09.012Z,13.00
2022-10-18T21:27:41.860Z,13.80
2022-10-18T21:30:16.102Z,15.50
2022-10-18T21:32:52.601Z,13.40
2022-10-18T21:35:25.655Z,14.60
2022-10-18T21:37:58.362Z,15.20
2022-10-18T21:40:31.224Z,15.00
2022-10-18T21:43:03.990Z,15.10
2022-10-18T21:45:36.718Z,15.10
2022-10-18T21:48:10.081Z,14.50
2022-10-18T21:50:43.077Z,15.80
2022-10-18T21:53:16.831Z,16.60
2022-10-18T21:55:49.666Z,13.70
2022-10-18T21:58:22.664Z,14.20
2022-10-18T22:00:55.531Z,20.80
2022-10-18T22:03:28.520Z,16.20
2022-10-18T22:06:07.829Z,19.40
2022-10-18T22:08:40.671Z,16.50
2022-10-18T22:11:14.606Z,15.70
2022-10-18T22:13:47.694Z,16.90
2022-10-18T22:16:21.020Z,18.80
2022-10-18T22:18:58.018Z,15.10
2022-10-18T22:21:32.155Z,17.00
2022-10-18T22:24:07.701Z,18.10
2022-10-18T22:26:42.883Z,21.70
2022-10-18T22:29:18.886Z,18.40
2022-10-18T22:31:53.883Z,18.70
2022-10-18T22:34:29.147Z,17.70
2022-10-18T22:37:02.406Z,17.60
2022-10-18T22:39:35.699Z,22.70
2022-10-18T22:42:08.818Z,19.10
2022-10-18T22:44:41.600Z,20.80
2022-10-18T22:47:14.383Z,16.60
2022-10-18T22:49:47.379Z,20.00
2022-10-18T22:52:20.186Z,19.00
2022-10-18T22:54:53.035Z,14.80
2022-10-18T22:57:25.881Z,15.30
2022-10-18T22:59:58.654Z,13.40
2022-10-18T23:02:31.779Z,15.20
2022-10-18T23:05:04.840Z,16.30
2022-10-18T23:07:37.719Z,15.90
2022-10-18T23:10:11.506Z,14.70
2022-10-18T23:12:44.262Z,17.00
2022-10-18T23:15:17.100Z,13.80
2022-10-18T23:17:50.282Z,13.70
2022-10-18T23:20:23.254Z,16.20
2022-10-18T23:22:56.285Z,14.40
2022-10-18T23:25:29.392Z,15.90
2022-10-18T23:28:02.628Z,13.80
2022-10-18T23:30:35.520Z,18.50
2022-10-18T23:33:08.498Z,16.70
2022-10-18T23:35:41.288Z,17.80
2022-10-18T23:38:14.112Z,13.80
2022-10-18T23:40:46.877Z,15.80
2022-10-18T23:43:19.719Z,17.10
2022-10-18T23:45:52.502Z,17.40
2022-10-18T23:48:25.500Z,14.70
2022-10-18T23:50:58.408Z,19.60
2022-10-18T23:53:31.676Z,17.30
2022-10-18T23:56:06.924Z,20.20
2022-10-18T23:58:40.978Z,17.30
